createdAt,value
2017-12-03T00:01:35.610Z,24.30
2017-12-03T00:04:03.087Z,24.20
2017-12-03T00:06:30.626Z,24.63
2017-12-03T00:08:58.116Z,22.20
2017-12-03T00:11:25.600Z,23.87
2017-12-03T00:13:53.131Z,22.60
2017-12-03T00:16:20.667Z,24.95
2017-12-03T00:18:48.165Z,24.37
2017-12-03T00:21:15.655Z,22.00
2017-12-03T00:23:43.136Z,25.58
2017-12-03T00:26:10.714Z,25.52
2017-12-03T00:28:38.220Z,25.10
2017-12-03T00:31:05.710Z,24.75
2017-12-03T00:33:33.236Z,25.37
2017-12-03T00:36:00.818Z,24.92
2017-12-03T00:38:28.324Z,25.50
2017-12-03T00:40:55.829Z,25.55
2017-12-03T00:43:23.325Z,26.75
2017-12-03T00:45:50.834Z,25.90
2017-12-03T00:48:18.325Z,25.10
2017-12-03T00:50:45.801Z,24.20
2017-12-03T00:53:13.275Z,23.55
2017-12-03T00:55:40.805Z,24.00
2017-12-03T00:58:08.314Z,25.58
2017-12-03T01:00:35.819Z,25.73
2017-12-03T01:03:03.316Z,24.40
2017-12-03T01:05:30.773Z,24.17
2017-12-03T01:07:58.278Z,25.15
2017-12-03T01:10:32.283Z,25.40
2017-12-03T01:12:59.784Z,25.00
2017-12-03T01:15:27.256Z,24.35
2017-12-03T01:17:54.729Z,24.75
2017-12-03T01:20:22.292Z,26.65
2017-12-03T01:22:49.916Z,24.95
2017-12-03T01:25:17.700Z,24.05
2017-12-03T01:27:45.213Z,27.27
2017-12-03T01:30:12.675Z,24.63
2017-12-03T01:32:40.165Z,25.17
2017-12-03T01:35:08.500Z,26.85
2017-12-03T01:37:35.967Z,25.17
2017-12-03T01:40:03.486Z,23.73
2017-12-03T01:42:31.639Z,24.90
2017-12-03T01:44:59.127Z,24.12
2017-12-03T01:47:26.670Z,26.80
2017-12-03T01:49:54.175Z,25.92
2017-12-03T01:52:22.687Z,26.65
2017-12-03T01:54:50.187Z,26.65
2017-12-03T01:57:17.703Z,25.23
2017-12-03T01:59:45.205Z,23.45
2017-12-03T02:02:12.780Z,25.20
2017-12-03T02:04:40.280Z,24.50
2017-12-03T02:07:07.790Z,22.73
2017-12-03T02:09:35.258Z,24.15
2017-12-03T02:12:02.739Z,25.60
2017-12-03T02:14:30.247Z,27.33
2017-12-03T02:16:57.775Z,23.80
2017-12-03T02:19:26.152Z,21.85
2017-12-03T02:21:53.635Z,32.38
2017-12-03T02:24:21.125Z,25.15
2017-12-03T02:26:48.665Z,24.75
2017-12-03T02:29:17.180Z,24.45
2017-12-03T02:31:44.669Z,24.95
2017-12-03T02:34:12.202Z,24.60
2017-12-03T02:36:39.669Z,23.02
2017-12-03T02:39:07.167Z,24.12
2017-12-03T02:41:34.664Z,26.05
2017-12-03T02:44:02.133Z,25.17
2017-12-03T02:46:29.623Z,21.80
2017-12-03T02:48:57.148Z,31.90
2017-12-03T02:51:24.665Z,20.85
2017-12-03T02:53:52.167Z,23.02
2017-12-03T02:56:19.657Z,24.50
2017-12-03T02:58:47.158Z,25.00
2017-12-03T03:01:14.668Z,23.65
2017-12-03T03:03:42.216Z,25.00
2017-12-03T03:06:09.758Z,22.10
2017-12-03T03:08:37.223Z,23.23
2017-12-03T03:11:04.685Z,25.17
2017-12-03T03:13:32.183Z,22.13
2017-12-03T03:15:59.664Z,22.95
2017-12-03T03:18:27.143Z,26.00
2017-12-03T03:20:54.630Z,22.40
2017-12-03T03:23:22.141Z,23.00
2017-12-03T03:25:49.875Z,22.80
2017-12-03T03:28:17.490Z,21.23
2017-12-03T03:30:44.964Z,26.52
2017-12-03T03:33:12.442Z,26.50
2017-12-03T03:35:39.951Z,25.55
2017-12-03T03:38:07.444Z,22.48
2017-12-03T03:40:34.907Z,20.05
2017-12-03T03:43:02.371Z,21.42
2017-12-03T03:45:29.872Z,21.58
2017-12-03T03:47:57.372Z,21.42
2017-12-03T03:50:24.833Z,21.12
2017-12-03T03:52:52.314Z,20.92
2017-12-03T03:55:20.575Z,23.33
2017-12-03T03:57:48.035Z,22.90
2017-12-03T04:00:15.559Z,21.15
2017-12-03T04:02:43.031Z,20.90
2017-12-03T04:05:10.512Z,20.25
2017-12-03T04:07:38.131Z,21.25
2017-12-03T04:10:05.603Z,21.92
2017-12-03T04:12:33.111Z,21.87
2017-12-03T04:15:00.602Z,21.30
2017-12-03T04:17:28.086Z,23.45
2017-12-03T04:19:55.586Z,19.27
2017-12-03T04:22:23.148Z,20.75
2017-12-03T04:24:50.620Z,21.12
2017-12-03T04:27:18.140Z,21.98
2017-12-03T04:29:45.607Z,19.98
2017-12-03T04:32:13.157Z,20.20
2017-12-03T04:34:40.640Z,21.33
2017-12-03T04:37:08.093Z,21.50
2017-12-03T04:39:35.600Z,20.73
2017-12-03T04:42:03.076Z,21.33
2017-12-03T04:44:30.573Z,22.58
2017-12-03T04:46:58.036Z,22.20
2017-12-03T04:49:25.496Z,20.65
2017-12-03T04:51:52.998Z,20.08
2017-12-03T04:54:20.515Z,21.48
2017-12-03T04:56:47.998Z,20.50
2017-12-03T04:59:15.497Z,21.90
2017-12-03T05:01:42.973Z,20.25
2017-12-03T05:04:10.438Z,18.98
2017-12-03T05:06:37.914Z,18.83
2017-12-03T05:09:05.720Z,20.42
2017-12-03T05:11:33.210Z,19.35
2017-12-03T05:14:00.676Z,18.55
2017-12-03T05:16:28.140Z,20.30
2017-12-03T05:18:55.635Z,19.60
2017-12-03T05:21:23.098Z,18.35
2017-12-03T05:23:50.563Z,18.90
2017-12-03T05:26:18.040Z,19.83
2017-12-03T05:28:45.498Z,18.37
2017-12-03T05:31:12.967Z,19.77
2017-12-03T05:33:40.448Z,17.77
2017-12-03T05:36:07.960Z,21.23
2017-12-03T05:38:35.427Z,20.92
2017-12-03T05:41:02.911Z,19.08
2017-12-03T05:43:30.407Z,20.05
2017-12-03T05:45:58.096Z,20.60
2017-12-03T05:48:25.571Z,18.05
2017-12-03T05:50:53.024Z,19.73
2017-12-03T05:53:20.504Z,20.25
2017-12-03T05:55:47.984Z,21.42
2017-12-03T05:58:15.439Z,19.40
2017-12-03T06:00:42.933Z,19.15
2017-12-03T06:03:10.416Z,20.77
2017-12-03T06:05:37.964Z,19.17
2017-12-03T06:08:05.457Z,18.35
2017-12-03T06:10:33.063Z,20.37
2017-12-03T06:13:00.523Z,19.40
2017-12-03T06:15:28.037Z,19.65
2017-12-03T06:17:55.548Z,19.80
2017-12-03T06:20:23.026Z,19.70
2017-12-03T06:22:50.536Z,19.35
2017-12-03T06:25:18.016Z,17.42
2017-12-03T06:27:45.497Z,18.42
2017-12-03T06:30:12.987Z,18.40
2017-12-03T06:32:40.524Z,18.77
2017-12-03T06:35:08.006Z,19.40
2017-12-03T06:37:35.483Z,18.58
2017-12-03T06:40:03.004Z,18.02
2017-12-03T06:42:30.500Z,20.92
2017-12-03T06:44:58.043Z,18.58
2017-12-03T06:47:25.569Z,18.73
2017-12-03T06:49:53.092Z,17.87
2017-12-03T06:52:20.577Z,19.05
2017-12-03T06:54:48.054Z,20.35
2017-12-03T06:57:16.375Z,19.60
2017-12-03T06:59:43.869Z,18.58
2017-12-03T07:02:11.352Z,20.42
2017-12-03T07:04:38.835Z,20.55
2017-12-03T07:07:06.308Z,19.20
2017-12-03T07:09:34.764Z,20.70
2017-12-03T07:12:02.266Z,21.25
2017-12-03T07:14:29.889Z,19.52
2017-12-03T07:16:57.392Z,19.55
2017-12-03T07:19:24.869Z,18.80
2017-12-03T07:21:52.486Z,16.65
2017-12-03T07:24:19.989Z,17.87
2017-12-03T07:26:47.475Z,16.58
2017-12-03T07:29:14.962Z,16.10
2017-12-03T07:31:42.541Z,16.17
2017-12-03T07:34:10.012Z,15.75
2017-12-03T07:36:37.484Z,16.52
2017-12-03T07:39:04.972Z,16.63
2017-12-03T07:41:32.540Z,17.27
2017-12-03T07:44:00.099Z,16.17
2017-12-03T07:46:27.574Z,16.05
2017-12-03T07:48:55.118Z,14.70
2017-12-03T07:51:22.714Z,16.07
2017-12-03T07:53:50.199Z,14.93
2017-12-03T07:56:17.692Z,14.43
2017-12-03T07:58:45.180Z,15.75
2017-12-03T08:01:12.758Z,13.93
2017-12-03T08:03:40.258Z,13.27
2017-12-03T08:06:07.775Z,14.57
2017-12-03T08:08:35.270Z,15.15
2017-12-03T08:11:02.763Z,14.73
2017-12-03T08:13:30.291Z,14.37
2017-12-03T08:15:57.795Z,15.97
2017-12-03T08:18:25.696Z,13.15
2017-12-03T08:20:53.295Z,14.20
2017-12-03T08:23:20.796Z,15.43
2017-12-03T08:25:48.270Z,15.90
2017-12-03T08:28:16.080Z,14.73
2017-12-03T08:30:43.625Z,13.83
2017-12-03T08:33:11.115Z,14.83
2017-12-03T08:35:38.584Z,15.93
2017-12-03T08:38:06.088Z,15.82
2017-12-03T08:40:33.682Z,15.67
2017-12-03T08:43:01.186Z,18.20
2017-12-03T08:45:28.737Z,16.83
2017-12-03T08:47:56.224Z,18.30
2017-12-03T08:50:23.684Z,16.50
2017-12-03T08:52:51.145Z,16.40
2017-12-03T08:55:18.635Z,15.15
2017-12-03T08:57:46.139Z,16.52
2017-12-03T09:00:13.614Z,15.43
2017-12-03T09:02:41.103Z,16.90
2017-12-03T09:05:08.646Z,17.87
2017-12-03T09:07:36.187Z,15.98
2017-12-03T09:10:03.662Z,14.45
2017-12-03T09:12:31.159Z,15.05
2017-12-03T09:14:59.276Z,14.98
2017-12-03T09:17:26.791Z,15.43
2017-12-03T09:19:54.298Z,14.15
2017-12-03T09:22:21.816Z,14.43
2017-12-03T09:24:49.331Z,13.50
2017-12-03T09:27:16.823Z,14.20
2017-12-03T09:29:44.344Z,13.45
2017-12-03T09:32:11.819Z,12.10
2017-12-03T09:34:39.302Z,12.50
2017-12-03T09:37:07.326Z,11.63
2017-12-03T09:39:34.791Z,11.63
2017-12-03T09:42:02.308Z,10.83
2017-12-03T09:44:29.837Z,11.30
2017-12-03T09:46:57.300Z,11.30
2017-12-03T09:49:24.776Z,11.50
2017-12-03T09:51:52.275Z,11.97
2017-12-03T09:54:19.933Z,10.57
2017-12-03T09:56:47.435Z,9.80
2017-12-03T09:59:14.948Z,9.27
2017-12-03T10:01:42.424Z,9.67
2017-12-03T10:04:09.942Z,10.93
2017-12-03T10:06:37.438Z,8.93
2017-12-03T10:09:04.997Z,9.50
2017-12-03T10:11:32.472Z,10.00
2017-12-03T10:13:59.977Z,9.80
2017-12-03T10:16:27.462Z,9.40
2017-12-03T10:18:54.920Z,9.43
2017-12-03T10:21:22.454Z,10.27
2017-12-03T10:23:49.944Z,8.53
2017-12-03T10:26:17.498Z,9.07
2017-12-03T10:28:44.976Z,9.03
2017-12-03T10:31:12.711Z,8.97
2017-12-03T10:33:40.198Z,9.07
2017-12-03T10:36:07.728Z,7.60
2017-12-03T10:38:35.192Z,7.57
2017-12-03T10:41:02.670Z,7.57
2017-12-03T10:43:30.343Z,7.90
2017-12-03T10:45:57.874Z,6.83
2017-12-03T10:48:25.357Z,6.87
2017-12-03T10:50:52.844Z,7.27
2017-12-03T10:53:20.508Z,7.60
2017-12-03T10:55:47.971Z,6.60
2017-12-03T10:58:15.432Z,7.90
2017-12-03T11:00:42.972Z,7.47
2017-12-03T11:03:10.513Z,6.20
2017-12-03T11:05:38.008Z,6.40
2017-12-03T11:08:05.479Z,6.20
2017-12-03T11:10:32.957Z,6.60
2017-12-03T11:13:00.519Z,6.47
2017-12-03T11:15:28.017Z,6.83
2017-12-03T11:17:55.578Z,6.90
2017-12-03T11:20:23.092Z,5.80
2017-12-03T11:22:50.590Z,6.60
2017-12-03T11:25:18.082Z,5.90
2017-12-03T11:27:45.576Z,6.53
2017-12-03T11:30:13.034Z,6.53
2017-12-03T11:32:40.553Z,7.30
2017-12-03T11:35:08.044Z,7.67
2017-12-03T11:37:35.564Z,7.83
2017-12-03T11:40:03.027Z,7.33
2017-12-03T11:42:30.502Z,8.00
2017-12-03T11:44:57.991Z,8.27
2017-12-03T11:47:25.444Z,8.50
2017-12-03T11:49:52.925Z,6.93
2017-12-03T11:52:20.418Z,9.37
2017-12-03T11:54:47.937Z,8.33
2017-12-03T11:57:15.406Z,7.97
2017-12-03T11:59:42.879Z,7.60
2017-12-03T12:02:10.387Z,7.90
2017-12-03T12:04:37.886Z,8.97
2017-12-03T12:07:05.414Z,8.73
2017-12-03T12:09:32.892Z,9.33
2017-12-03T12:12:00.340Z,10.90
2017-12-03T12:14:27.840Z,9.93
2017-12-03T12:16:55.501Z,11.37
2017-12-03T12:19:22.973Z,11.53
2017-12-03T12:21:50.463Z,11.23
2017-12-03T12:24:18.251Z,11.33
2017-12-03T12:26:45.863Z,11.30
2017-12-03T12:29:13.319Z,12.77
2017-12-03T12:31:40.838Z,12.40
2017-12-03T12:34:08.311Z,10.30
2017-12-03T12:36:35.824Z,12.37
2017-12-03T12:39:04.262Z,11.43
2017-12-03T12:41:31.793Z,10.63
2017-12-03T12:44:07.350Z,12.33
2017-12-03T12:46:35.540Z,12.17
2017-12-03T12:49:03.107Z,11.80
2017-12-03T12:51:30.628Z,12.27
2017-12-03T12:53:58.544Z,12.37
2017-12-03T12:56:26.105Z,12.03
2017-12-03T12:58:55.018Z,13.77
2017-12-03T13:01:22.491Z,11.10
2017-12-03T13:03:50.013Z,11.73
2017-12-03T13:06:17.510Z,12.70
2017-12-03T13:08:44.986Z,13.43
2017-12-03T13:11:12.537Z,13.23
2017-12-03T13:13:40.073Z,12.83
2017-12-03T13:16:07.609Z,12.17
2017-12-03T13:18:35.125Z,12.43
2017-12-03T13:21:02.685Z,13.70
2017-12-03T13:23:30.206Z,11.73
2017-12-03T13:25:57.737Z,12.97
2017-12-03T13:28:25.354Z,13.80
2017-12-03T13:30:52.860Z,12.93
2017-12-03T13:33:20.435Z,13.50
2017-12-03T13:35:47.929Z,13.40
2017-12-03T13:38:15.445Z,13.30
2017-12-03T13:40:42.944Z,13.17
2017-12-03T13:43:10.511Z,14.00
2017-12-03T13:45:37.984Z,13.10
2017-12-03T13:48:05.560Z,13.23
2017-12-03T13:50:33.789Z,13.70
2017-12-03T13:53:01.257Z,12.13
2017-12-03T13:55:28.811Z,13.43
2017-12-03T13:57:57.798Z,13.43
2017-12-03T14:00:27.212Z,13.57
2017-12-03T14:02:54.742Z,13.30
2017-12-03T14:05:23.277Z,13.97
2017-12-03T14:07:51.005Z,12.10
2017-12-03T14:10:18.786Z,12.00
2017-12-03T14:12:48.359Z,12.37
2017-12-03T14:15:16.111Z,10.83
2017-12-03T14:17:43.609Z,11.57
2017-12-03T14:20:14.791Z,11.60
2017-12-03T14:22:42.313Z,11.80
2017-12-03T14:25:09.939Z,12.80
2017-12-03T14:27:37.564Z,12.10
2017-12-03T14:30:05.089Z,12.47
2017-12-03T14:32:32.843Z,10.30
2017-12-03T14:35:00.318Z,11.30
2017-12-03T14:37:27.803Z,10.70
2017-12-03T14:39:57.057Z,10.97
2017-12-03T14:42:29.038Z,10.27
2017-12-03T14:44:56.759Z,10.00
2017-12-03T14:47:24.358Z,10.03
2017-12-03T14:49:51.863Z,9.77
2017-12-03T14:52:19.447Z,17.43
2017-12-03T14:54:46.932Z,7.90
2017-12-03T14:57:14.734Z,15.05
2017-12-03T14:59:42.702Z,8.33
2017-12-03T15:02:10.274Z,9.00
2017-12-03T15:04:37.861Z,8.23
2017-12-03T15:07:05.348Z,8.02
2017-12-03T15:09:33.587Z,9.03
2017-12-03T15:12:01.193Z,7.80
2017-12-03T15:14:28.853Z,8.00
2017-12-03T15:16:56.523Z,12.18
2017-12-03T15:19:26.252Z,14.20
2017-12-03T15:21:54.788Z,12.40
2017-12-03T15:24:22.307Z,13.80
2017-12-03T15:26:50.076Z,10.23
2017-12-03T15:29:19.445Z,10.65
2017-12-03T15:31:46.955Z,11.60
2017-12-03T15:34:14.642Z,11.45
2017-12-03T15:36:42.678Z,13.00
2017-12-03T15:39:10.184Z,14.63
2017-12-03T15:41:37.751Z,15.02
2017-12-03T15:44:05.215Z,14.60
2017-12-03T15:46:32.776Z,14.38
2017-12-03T15:49:03.388Z,14.07
2017-12-03T15:51:30.976Z,15.10
2017-12-03T15:53:58.636Z,17.15
2017-12-03T15:56:26.208Z,14.15
2017-12-03T15:58:53.708Z,15.65
2017-12-03T16:01:22.042Z,15.30
2017-12-03T16:03:49.809Z,14.50
2017-12-03T16:06:17.327Z,15.57
2017-12-03T16:08:44.944Z,15.40
2017-12-03T16:11:12.747Z,15.55
2017-12-03T16:13:40.285Z,14.93
2017-12-03T16:16:08.309Z,14.30
2017-12-03T16:18:35.978Z,14.52
2017-12-03T16:21:03.537Z,14.70
2017-12-03T16:23:31.042Z,13.60
2017-12-03T16:25:58.553Z,14.40
2017-12-03T16:28:26.084Z,15.35
2017-12-03T16:30:53.571Z,15.47
2017-12-03T16:33:21.079Z,13.98
2017-12-03T16:35:48.552Z,15.23
2017-12-03T16:38:16.318Z,15.52
2017-12-03T16:40:43.935Z,15.05
2017-12-03T16:43:11.714Z,13.55
2017-12-03T16:45:39.265Z,14.13
2017-12-03T16:48:06.747Z,13.18
2017-12-03T16:50:34.298Z,11.27
2017-12-03T16:53:01.793Z,11.95
2017-12-03T16:55:29.274Z,12.13
2017-12-03T16:57:56.821Z,11.60
2017-12-03T17:00:24.526Z,10.80
2017-12-03T17:02:52.064Z,10.65
2017-12-03T17:05:19.607Z,11.98
2017-12-03T17:07:47.146Z,11.32
2017-12-03T17:10:19.132Z,9.65
2017-12-03T17:12:47.486Z,10.38
2017-12-03T17:15:15.255Z,11.02
2017-12-03T17:17:42.796Z,11.05
2017-12-03T17:20:10.313Z,10.40
2017-12-03T17:22:37.834Z,9.88
2017-12-03T17:25:05.328Z,9.52
2017-12-03T17:27:32.904Z,11.68
2017-12-03T17:30:00.382Z,11.00
2017-12-03T17:32:28.088Z,11.60
2017-12-03T17:34:55.768Z,13.32
2017-12-03T17:37:23.252Z,14.82
2017-12-03T17:39:50.741Z,11.50
2017-12-03T17:42:18.248Z,12.43
2017-12-03T17:44:45.745Z,12.05
2017-12-03T17:47:13.216Z,13.57
2017-12-03T17:49:40.719Z,14.35
2017-12-03T17:52:08.208Z,15.02
2017-12-03T17:54:35.700Z,19.75
2017-12-03T17:57:03.228Z,13.85
2017-12-03T17:59:30.711Z,14.77
2017-12-03T18:01:58.201Z,14.65
2017-12-03T18:04:25.680Z,13.77
2017-12-03T18:06:53.227Z,15.75
2017-12-03T18:09:26.424Z,15.18
2017-12-03T18:11:54.376Z,14.60
2017-12-03T18:14:21.865Z,14.90
2017-12-03T18:16:49.400Z,14.15
2017-12-03T18:19:16.883Z,15.18
2017-12-03T18:21:44.404Z,14.90
2017-12-03T18:24:11.886Z,19.37
2017-12-03T18:26:39.414Z,16.15
2017-12-03T18:29:07.381Z,15.70
2017-12-03T18:31:34.876Z,14.65
2017-12-03T18:34:02.370Z,13.57
2017-12-03T18:36:29.894Z,14.20
2017-12-03T18:38:57.460Z,15.57
2017-12-03T18:41:24.934Z,15.25
2017-12-03T18:43:52.427Z,14.27
2017-12-03T18:46:19.942Z,15.50
2017-12-03T18:48:47.457Z,14.50
2017-12-03T18:51:15.239Z,14.65
2017-12-03T18:53:42.791Z,13.45
2017-12-03T18:56:10.268Z,15.45
2017-12-03T18:58:37.771Z,14.55
2017-12-03T19:01:13.286Z,14.30
2017-12-03T19:03:40.821Z,14.50
2017-12-03T19:06:08.369Z,14.98
2017-12-03T19:08:35.850Z,15.93
2017-12-03T19:11:03.357Z,15.40
2017-12-03T19:13:30.913Z,14.27
2017-12-03T19:15:58.436Z,14.25
2017-12-03T19:18:25.964Z,14.25
2017-12-03T19:20:55.104Z,15.95
2017-12-03T19:23:22.654Z,13.43
2017-12-03T19:25:50.141Z,15.90
2017-12-03T19:28:17.744Z,13.07
2017-12-03T19:30:45.223Z,13.52
2017-12-03T19:33:12.783Z,14.32
2017-12-03T19:35:40.316Z,12.82
2017-12-03T19:38:07.843Z,11.95
2017-12-03T19:40:35.375Z,12.93
2017-12-03T19:43:02.939Z,11.90
2017-12-03T19:45:30.419Z,13.00
2017-12-03T19:47:57.955Z,12.18
2017-12-03T19:50:25.432Z,13.70
2017-12-03T19:52:52.916Z,12.80
2017-12-03T19:55:20.432Z,13.95
2017-12-03T19:57:47.905Z,12.55
2017-12-03T20:00:15.371Z,12.02
2017-12-03T20:02:42.880Z,20.90
2017-12-03T20:05:10.365Z,43.35
2017-12-03T20:07:37.836Z,14.05
2017-12-03T20:10:05.392Z,13.13
2017-12-03T20:12:33.673Z,12.45
2017-12-03T20:15:01.785Z,13.90
2017-12-03T20:17:29.299Z,13.10
2017-12-03T20:19:56.767Z,13.95
2017-12-03T20:22:24.247Z,13.35
2017-12-03T20:24:51.758Z,14.30
2017-12-03T20:27:19.243Z,13.73
2017-12-03T20:29:46.724Z,13.30
2017-12-03T20:32:14.769Z,15.05
2017-12-03T20:34:42.311Z,13.25
2017-12-03T20:37:09.807Z,14.80
2017-12-03T20:39:37.334Z,14.07
2017-12-03T20:42:04.897Z,14.80
2017-12-03T20:44:32.805Z,14.93
2017-12-03T20:47:00.317Z,14.80
2017-12-03T20:49:29.357Z,15.43
2017-12-03T20:51:56.903Z,14.07
2017-12-03T20:54:24.688Z,15.55
2017-12-03T20:56:52.294Z,14.38
2017-12-03T20:59:20.651Z,14.18
2017-12-03T21:01:48.205Z,14.25
2017-12-03T21:04:16.693Z,15.10
2017-12-03T21:06:44.444Z,13.82
2017-12-03T21:09:11.947Z,13.50
2017-12-03T21:11:39.501Z,13.95
2017-12-03T21:14:06.992Z,13.40
2017-12-03T21:16:34.495Z,14.10
2017-12-03T21:21:39.488Z,13.60
2017-12-03T21:25:54.541Z,13.98
2017-12-03T21:31:25.511Z,14.75
2017-12-03T21:33:52.975Z,12.80
2017-12-03T21:36:20.592Z,14.50
2017-12-03T21:51:38.211Z,15.98
2017-12-03T21:54:05.857Z,17.73
2017-12-03T21:56:34.440Z,17.60
2017-12-03T21:59:03.204Z,18.60
2017-12-03T22:01:30.893Z,18.00
2017-12-03T22:03:58.659Z,19.75
2017-12-03T22:06:26.604Z,17.23
2017-12-03T22:08:54.346Z,18.55
2017-12-03T22:11:21.808Z,18.30
2017-12-03T22:13:49.309Z,18.60
2017-12-03T22:16:16.828Z,18.85
2017-12-03T22:18:53.466Z,20.27
2017-12-03T22:21:21.922Z,19.92
2017-12-03T22:29:25.563Z,20.15
2017-12-03T22:31:53.777Z,18.87
2017-12-03T22:36:54.683Z,18.55
2017-12-03T22:39:23.001Z,19.90
2017-12-03T22:41:51.061Z,18.05
2017-12-03T22:44:18.626Z,19.27
2017-12-03T22:46:49.583Z,18.85
2017-12-03T22:49:18.788Z,18.87
2017-12-03T22:54:20.181Z,17.00
2017-12-03T22:56:48.204Z,16.83
2017-12-03T22:59:17.783Z,17.17
2017-12-03T23:01:45.374Z,15.18
2017-12-03T23:04:20.389Z,15.85
2017-12-03T23:06:48.169Z,16.35
2017-12-03T23:09:23.099Z,15.68
2017-12-03T23:25:05.018Z,14.30
2017-12-03T23:30:36.925Z,15.90
2017-12-03T23:33:06.153Z,13.40
2017-12-03T23:35:34.453Z,13.25
2017-12-03T23:41:05.233Z,12.65
2017-12-03T23:43:32.830Z,13.82
2017-12-03T23:46:00.843Z,14.07
2017-12-03T23:48:28.535Z,13.45
2017-12-03T23:50:56.015Z,13.70
2017-12-03T23:53:42.768Z,13.23
2017-12-03T23:56:10.907Z,12.13
2017-12-03T23:58:39.141Z,13.55
